This is the latest recevied weather packets stored in our database for station/object W8MRL. If no packets are shown the sender has not sent any weather packets the latest 1 day(s).
| Time | Temp. | Humidity | Pressure | Rain* | Wind** | Luminosity | Snow |
|---|---|---|---|---|---|---|---|
| 1777979746 | 12.78° C | 95% | 1011.1 hPa | 0 mm | 0 m/s | - | - |
| 1777978845 | 12.78° C | 94% | 1010.8 hPa | 0.25 mm | 0 m/s | - | - |
| 1777977946 | 12.78° C | 94% | 1010.8 hPa | 1.52 mm | 0 m/s | - | - |
| 1777977065 | 12.78° C | 93% | 1011.1 hPa | 2.54 mm | 0 m/s | - | - |
| 1777976148 | 13.33° C | 93% | 1011.8 hPa | 3.3 mm | 0 m/s | - | - |
| 1777975240 | 13.33° C | 92% | 1012 hPa | 3.05 mm | 0 m/s | - | - |
| 1777974336 | 13.89° C | 91% | 1012.2 hPa | 1.78 mm | 0 m/s | - | - |
| 1777973435 | 14.44° C | 89% | 1012.1 hPa | 0.51 mm | 0.45 m/s, 330° | - | - |
| 1777972533 | 15° C | 86% | 1012.1 hPa | 0 mm | 1.34 m/s, 313° | - | - |
| 1777971638 | 15.56° C | 84% | 1011.6 hPa | 0 mm | 0 m/s | - | - |
| 1777970724 | 15.56° C | 83% | 1011.3 hPa | 0 mm | 0 m/s | - | - |
| 1777969822 | 15.56° C | 82% | 1010.9 hPa | 0 mm | 0.45 m/s, 306° | - | - |
| 1777968919 | 16.11° C | 80% | 1010.3 hPa | 0 mm | 0.45 m/s, 340° | - | - |
| 1777968034 | 17.22° C | 77% | 1010.5 hPa | 0 mm | 0.45 m/s, 302° | - | - |
| 1777967110 | 18.33° C | 70% | 1010.6 hPa | 0 mm | 0.45 m/s, 314° | - | - |
| 1777966210 | 18.33° C | 68% | 1010 hPa | 0 mm | 0.89 m/s, 213° | - | - |
| 1777965305 | 18.33° C | 67% | 1009.9 hPa | 0 mm | 0.89 m/s, 219° | - | - |
| 1777964403 | 18.89° C | 66% | 1010 hPa | 0 mm | 0.89 m/s, 237° | - | - |
| 1777963502 | 18.89° C | 65% | 1009.9 hPa | 0 mm | 1.79 m/s, 182° | - | - |
| 1777962660 | 19.44° C | 64% | 1009.6 hPa | 0 mm | 1.79 m/s, 253° | - | - |
| 1777961758 | 19.44° C | 64% | 1009.5 hPa | 0 mm | 1.79 m/s, 188° | - | - |
| 1777960859 | 19.44° C | 63% | 1009.2 hPa | 0 mm | 2.24 m/s, 211° | - | - |
* Rain latest hour (hover to see other rain measurements)
** Current wind speed in m/s (hover to see current wind gust speed)